Time;durP1;ratioP1;P1;durP2;ratioP2;P2;SDS_P1;SDS_P2;PMS_P1;PMS_P2;Temp;Humidity;BMP_temperature;BMP_pressure;BME280_temperature;BME280_humidity;BME280_pressure;Samples;Min_cycle;Max_cycle;Signal;HPM_P1;HPM_P2
2023/10/08 00:01:16;;;;;;;9.73;5.47;;;;;;;16.09;84.46;102095.44;5020241;28;20465;-75
2023/10/08 00:03:48;;;;;;;10.60;5.63;;;;;;;16.13;85.00;102110.44;5015143;28;20025;-74
2023/10/08 00:06:14;;;;;;;8.32;5.20;;;;;;;16.07;84.71;102098.22;5016505;28;20388;-75
2023/10/08 00:08:40;;;;;;;11.00;5.35;;;;;;;16.08;84.84;102105.31;5021372;28;20054;-75
2023/10/08 00:11:06;;;;;;;7.95;5.00;;;;;;;16.03;84.96;102110.09;5014781;28;20510;-74
2023/10/08 00:13:39;;;;;;;9.75;5.40;;;;;;;15.98;85.45;102119.34;5017413;28;20100;-74
2023/10/08 00:16:09;;;;;;;9.55;5.60;;;;;;;15.90;85.52;102114.38;5014923;28;20037;-74
2023/10/08 00:18:36;;;;;;;8.10;5.15;;;;;;;15.89;86.24;102120.72;5017268;28;20443;-74
2023/10/08 00:23:42;;;;;;;8.02;5.32;;;;;;;15.74;86.89;102126.88;5017644;28;20033;-74
2023/10/08 00:26:08;;;;;;;10.18;5.00;;;;;;;15.67;86.74;102120.94;5018014;28;20186;-72
2023/10/08 00:28:34;;;;;;;9.02;5.38;;;;;;;15.63;87.29;102116.66;5013760;28;20455;-73
2023/10/08 00:33:53;;;;;;;10.15;5.97;;;;;;;15.54;87.71;102131.41;5019549;28;20034;-74
2023/10/08 00:36:19;;;;;;;7.32;5.22;;;;;;;15.48;88.04;102123.69;5022022;28;20029;-74
2023/10/08 00:38:51;;;;;;;6.82;4.85;;;;;;;15.41;88.74;102131.16;5020479;28;20038;-73
2023/10/08 00:41:24;;;;;;;9.80;5.90;;;;;;;15.32;89.15;102142.38;5023636;28;20511;-74
2023/10/08 00:43:51;;;;;;;9.15;6.13;;;;;;;15.32;89.13;102128.94;5020386;28;20034;-73
2023/10/08 00:46:24;;;;;;;9.02;5.53;;;;;;;15.28;89.62;102137.25;5018880;28;20030;-74
2023/10/08 00:48:54;;;;;;;16.75;5.95;;;;;;;15.26;89.44;102133.75;5017893;28;20013;-73
2023/10/08 00:53:52;;;;;;;9.77;5.32;;;;;;;15.14;90.12;102129.88;5018456;28;20060;-72
2023/10/08 00:56:19;;;;;;;9.75;5.57;;;;;;;15.08;90.19;102139.06;5019333;28;20058;-74
2023/10/08 00:58:51;;;;;;;9.63;5.40;;;;;;;15.06;90.96;102129.41;5017959;28;20160;-74
2023/10/08 01:01:20;;;;;;;8.48;5.55;;;;;;;15.01;91.12;102155.56;5022848;28;20033;-74
2023/10/08 01:03:45;;;;;;;8.68;5.40;;;;;;;14.98;91.19;102150.34;5015523;28;20375;-73
2023/10/08 01:06:12;;;;;;;9.32;5.43;;;;;;;14.92;91.83;102144.34;5021551;28;20025;-75
2023/10/08 01:08:45;;;;;;;9.60;6.35;;;;;;;14.88;91.55;102133.81;5017666;28;20131;-73
2023/10/08 01:11:26;;;;;;;11.52;5.80;;;;;;;14.86;91.85;102130.34;5016997;28;20048;-74
2023/10/08 01:13:54;;;;;;;11.70;6.07;;;;;;;14.84;92.02;102126.88;5018538;28;20456;-73
2023/10/08 01:16:20;;;;;;;9.07;5.90;;;;;;;14.81;92.24;102132.41;5018640;28;20100;-75
2023/10/08 01:18:50;;;;;;;8.10;5.53;;;;;;;14.76;92.09;102121.91;5016647;28;20528;-73
2023/10/08 01:21:31;;;;;;;9.00;5.80;;;;;;;14.76;91.88;102111.19;5016880;28;20025;-74
2023/10/08 01:23:59;;;;;;;9.05;5.85;;;;;;;14.76;91.77;102105.81;5031286;28;20167;-73
2023/10/08 01:26:29;;;;;;;9.95;5.70;;;;;;;14.70;91.85;102116.81;5020179;28;20018;-73
2023/10/08 01:28:54;;;;;;;9.45;5.45;;;;;;;14.67;92.46;102122.31;5017338;28;20026;-73
2023/10/08 01:31:20;;;;;;;10.98;6.07;;;;;;;14.62;92.63;102121.69;5013023;28;20026;-73
2023/10/08 01:33:50;;;;;;;9.82;5.72;;;;;;;14.53;92.48;102111.41;5018848;28;20033;-73
2023/10/08 01:36:16;;;;;;;8.40;5.05;;;;;;;14.57;92.71;102113.84;5020269;28;20551;-73
2023/10/08 01:38:41;;;;;;;10.85;5.63;;;;;;;14.50;92.98;102115.06;5017562;28;20172;-72
2023/10/08 01:41:18;;;;;;;8.20;5.20;;;;;;;14.52;92.62;102096.28;5002018;28;20507;-73
2023/10/08 01:43:47;;;;;;;9.80;5.40;;;;;;;14.47;92.41;102109.84;5036083;28;20627;-74
2023/10/08 01:46:15;;;;;;;8.13;5.22;;;;;;;14.44;92.63;102108.19;5020570;28;20061;-74
2023/10/08 01:48:43;;;;;;;9.05;5.28;;;;;;;14.47;92.37;102095.59;5020914;28;20112;-75
2023/10/08 01:51:11;;;;;;;8.48;5.03;;;;;;;14.41;92.64;102086.88;5027071;28;20060;-74
2023/10/08 01:53:41;;;;;;;8.43;5.28;;;;;;;14.42;92.46;102088.66;5016560;28;20033;-74
2023/10/08 01:56:07;;;;;;;10.45;5.53;;;;;;;14.49;92.37;102108.00;5021605;28;20045;-73
2023/10/08 01:58:35;;;;;;;10.25;6.07;;;;;;;14.48;91.99;102113.41;5019246;28;20017;-72
2023/10/08 02:01:00;;;;;;;10.85;5.50;;;;;;;14.43;92.57;102111.81;5022307;28;20034;-73
2023/10/08 02:03:30;;;;;;;9.82;5.05;;;;;;;14.46;91.79;102094.69;5023942;28;20361;-74
2023/10/08 02:05:58;;;;;;;8.25;5.10;;;;;;;14.49;91.92;102112.47;5019458;28;20049;-72
2023/10/08 02:08:26;;;;;;;9.70;5.00;;;;;;;14.48;91.58;102124.13;5019757;28;20028;-73
2023/10/08 02:10:52;;;;;;;9.25;5.22;;;;;;;14.50;91.56;102138.31;5021423;28;20594;-73
2023/10/08 02:13:18;;;;;;;8.68;5.32;;;;;;;14.49;92.19;102132.09;5017062;28;20128;-74
2023/10/08 02:15:45;;;;;;;13.63;5.50;;;;;;;14.49;91.97;102132.09;5024606;28;20283;-72
2023/10/08 02:18:11;;;;;;;9.23;5.35;;;;;;;14.50;91.60;102136.50;5020549;28;20598;-73
2023/10/08 02:20:36;;;;;;;9.25;5.28;;;;;;;14.51;92.15;102134.72;5022340;28;20029;-74
2023/10/08 02:23:03;;;;;;;8.48;5.43;;;;;;;14.47;91.63;102122.38;5018240;28;20406;-73
2023/10/08 02:25:29;;;;;;;8.27;5.30;;;;;;;14.48;91.63;102113.41;5025415;28;20132;-75
2023/10/08 02:27:54;;;;;;;11.25;5.65;;;;;;;14.49;91.20;102132.09;5021354;28;20124;-74
2023/10/08 02:30:20;;;;;;;8.25;5.47;;;;;;;14.48;91.96;102126.78;5025131;28;20116;-73
2023/10/08 02:32:46;;;;;;;8.07;5.28;;;;;;;14.48;91.20;102132.16;5017738;28;20028;-74
2023/10/08 02:35:12;;;;;;;10.65;5.53;;;;;;;14.44;91.03;102131.41;5021106;28;20033;-73
2023/10/08 02:37:39;;;;;;;9.52;4.78;;;;;;;14.42;91.18;102126.16;5020243;28;20025;-73
2023/10/08 02:40:15;;;;;;;10.02;5.18;;;;;;;14.37;91.08;102122.78;5023251;28;20029;-74
2023/10/08 02:42:41;;;;;;;9.77;5.45;;;;;;;14.37;90.71;102132.63;5021283;28;20564;-75
2023/10/08 02:45:13;;;;;;;8.75;5.25;;;;;;;14.37;91.08;102140.66;5022035;28;20037;-74
2023/10/08 02:47:44;;;;;;;10.98;5.50;;;;;;;14.33;90.91;102134.59;5018212;28;20663;-74
2023/10/08 02:50:16;;;;;;;8.32;4.93;;;;;;;14.33;91.10;102128.34;5021512;28;20018;-75
2023/10/08 02:52:42;;;;;;;8.30;5.22;;;;;;;14.31;90.89;102138.28;5035064;28;20120;-73
2023/10/08 02:55:18;;;;;;;8.05;5.20;;;;;;;14.30;91.30;102142.78;5020231;28;20116;-75
2023/10/08 02:57:43;;;;;;;8.75;5.35;;;;;;;14.27;91.73;102155.44;5016350;28;20021;-74
2023/10/08 03:00:13;;;;;;;8.93;5.07;;;;;;;14.20;91.21;102146.81;5018369;28;20056;-75
2023/10/08 03:02:39;;;;;;;8.75;5.07;;;;;;;14.23;91.86;102146.66;5019370;28;20030;-75
2023/10/08 03:05:08;;;;;;;6.55;4.75;;;;;;;14.24;91.98;102153.75;5022495;28;20048;-74
2023/10/08 03:07:35;;;;;;;7.00;4.90;;;;;;;14.16;91.75;102140.72;5019588;28;20032;-74
2023/10/08 03:10:06;;;;;;;9.85;5.32;;;;;;;14.22;91.46;102154.78;5020173;28;20398;-75
2023/10/08 03:12:32;;;;;;;13.27;5.53;;;;;;;14.14;91.71;102141.72;5021416;28;20095;-73
2023/10/08 03:15:12;;;;;;;9.15;5.57;;;;;;;14.10;91.38;102148.16;5024685;28;20033;-73
2023/10/08 03:17:39;;;;;;;8.85;5.63;;;;;;;14.14;91.76;102157.81;5016690;28;20033;-73
2023/10/08 03:20:29;;;;;;;9.43;5.22;;;;;;;14.13;91.62;102151.59;5019286;28;20636;-74
2023/10/08 03:22:50;;;;;;;9.93;4.88;;;;;;;14.13;91.78;102156.94;5019351;28;20043;-73
2023/10/08 03:25:18;;;;;;;7.18;5.18;;;;;;;14.12;91.64;102160.53;5022164;28;20493;-74
2023/10/08 03:27:44;;;;;;;8.35;5.15;;;;;;;14.11;91.98;102165.97;5021034;28;20037;-72
2023/10/08 03:30:14;;;;;;;7.63;5.25;;;;;;;14.10;91.91;102165.09;5020237;28;20032;-74
2023/10/08 03:32:50;;;;;;;7.95;5.43;;;;;;;14.06;91.86;102176.88;5017305;28;20053;-74
2023/10/08 03:35:17;;;;;;;7.85;5.32;;;;;;;14.06;91.17;102182.22;5020037;28;20037;-74
2023/10/08 03:37:50;;;;;;;9.38;5.75;;;;;;;14.04;91.78;102184.09;5018693;28;20044;-74
2023/10/08 03:40:42;;;;;;;10.68;5.32;;;;;;;14.05;91.50;102174.28;5017097;28;20565;-73
2023/10/08 03:43:19;;;;;;;8.73;5.70;;;;;;;14.02;91.30;102174.41;5018256;28;21013;-74
2023/10/08 03:45:48;;;;;;;10.10;5.45;;;;;;;14.00;91.79;102176.25;5019404;28;20057;-73
2023/10/08 03:48:15;;;;;;;8.30;5.10;;;;;;;13.97;91.72;102177.28;5020108;28;20025;-72
2023/10/08 03:50:41;;;;;;;7.72;5.25;;;;;;;13.93;91.71;102176.56;5021033;28;20471;-73
2023/10/08 03:53:12;;;;;;;9.52;5.35;;;;;;;13.94;92.26;102177.41;5022728;28;20671;-73
2023/10/08 03:55:41;;;;;;;9.88;5.95;;;;;;;13.94;92.03;102189.00;5021483;28;20119;-73
2023/10/08 03:58:12;;;;;;;9.45;5.22;;;;;;;13.93;92.27;102178.38;5023738;28;20116;-73
2023/10/08 04:00:41;;;;;;;9.40;5.85;;;;;;;13.95;92.27;102184.50;5017158;28;20033;-75
2023/10/08 04:03:11;;;;;;;7.07;5.32;;;;;;;13.95;92.23;102171.13;5024311;28;20562;-74
2023/10/08 04:06:14;;;;;;;10.52;5.40;;;;;;;13.93;92.92;102175.69;5023676;28;20437;-74
2023/10/08 04:08:42;;;;;;;8.82;5.65;;;;;;;13.86;92.41;102171.53;5015268;28;20030;-73
2023/10/08 04:11:32;;;;;;;10.88;5.55;;;;;;;13.86;92.31;102183.09;5019721;28;20039;-73
2023/10/08 04:14:01;;;;;;;7.43;5.03;;;;;;;13.83;92.57;102172.50;5019112;28;20037;-73
2023/10/08 04:16:27;;;;;;;9.73;5.32;;;;;;;13.81;92.66;102169.06;5018709;28;20037;-74
2023/10/08 04:18:55;;;;;;;9.77;5.38;;;;;;;13.82;93.36;102176.13;5021485;28;20033;-74
2023/10/08 04:21:22;;;;;;;8.43;5.10;;;;;;;13.78;92.68;102179.88;5021668;28;20087;-73
2023/10/08 04:23:51;;;;;;;9.65;5.53;;;;;;;13.79;93.29;102168.22;5017210;28;20039;-74
2023/10/08 04:26:23;;;;;;;7.85;4.93;;;;;;;13.75;93.53;102171.09;5018655;28;20122;-74
2023/10/08 04:28:57;;;;;;;7.72;5.70;;;;;;;13.77;93.92;102179.97;5019383;28;20033;-73
2023/10/08 04:31:28;;;;;;;7.78;5.32;;;;;;;13.77;94.37;102183.50;5026920;28;20119;-73
2023/10/08 04:33:54;;;;;;;9.00;5.60;;;;;;;13.74;94.47;102188.97;5023516;28;20683;-74
2023/10/08 04:36:20;;;;;;;10.10;5.70;;;;;;;13.75;94.81;102197.88;5022900;28;20108;-74
2023/10/08 04:38:48;;;;;;;10.43;5.68;;;;;;;13.73;94.76;102199.75;5019841;28;20112;-74
2023/10/08 04:41:19;;;;;;;7.85;5.20;;;;;;;13.66;95.18;102193.78;5018561;28;20050;-74
2023/10/08 04:43:44;;;;;;;10.07;5.53;;;;;;;13.64;95.85;102183.16;5027914;28;20103;-72
2023/10/08 04:46:19;;;;;;;10.70;5.65;;;;;;;13.62;95.79;102189.50;5020785;28;20137;-73
2023/10/08 04:48:45;;;;;;;9.55;5.85;;;;;;;13.59;96.27;102203.88;5021849;28;20017;-73
2023/10/08 04:51:12;;;;;;;10.68;5.65;;;;;;;13.53;96.33;102198.78;5018848;28;20031;-74
2023/10/08 04:53:40;;;;;;;10.73;5.60;;;;;;;13.51;97.09;102198.00;5021611;28;20179;-73
2023/10/08 04:56:13;;;;;;;11.00;6.15;;;;;;;13.50;97.06;102195.34;5020000;28;20029;-75
2023/10/08 04:58:46;;;;;;;8.57;5.25;;;;;;;13.45;97.40;102209.78;5020347;28;20116;-75
2023/10/08 05:01:20;;;;;;;11.20;6.10;;;;;;;13.41;98.05;102213.53;5015992;28;20041;-74
2023/10/08 05:14:34;;;;;;;10.05;6.15;;;;;;;13.37;99.76;102222.59;5017487;28;20041;-75
2023/10/08 05:17:03;;;;;;;9.57;6.00;;;;;;;13.39;99.70;102220.75;5016550;28;20079;-73
2023/10/08 05:27:56;;;;;;;13.07;6.53;;;;;;;13.50;99.42;102236.34;5021092;28;20386;-72
2023/10/08 05:30:37;;;;;;;9.95;6.55;;;;;;;13.48;99.78;102232.00;5019998;28;20526;-72
2023/10/08 05:33:12;;;;;;;10.25;6.45;;;;;;;13.47;99.73;102227.59;5015155;28;20037;-73
2023/10/08 05:54:36;;;;;;;9.88;5.88;;;;;;;13.50;100.00;102264.91;5013363;28;20552;-72
2023/10/08 05:57:14;;;;;;;9.05;5.70;;;;;;;13.48;100.00;102254.28;5010644;28;20504;-73
2023/10/08 06:13:04;;;;;;;13.80;6.55;;;;;;;13.38;100.00;102211.00;5018195;28;20694;-73
2023/10/08 06:18:29;;;;;;;11.20;6.00;;;;;;;13.38;100.00;102221.69;5014653;28;20488;-73
2023/10/08 06:21:00;;;;;;;;;;;;;;;13.46;100.00;102216.03;5018412;28;20036;-72
2023/10/08 06:23:28;;;;;;;9.68;6.40;;;;;;;13.33;100.00;102212.97;5015308;28;19947;-72
2023/10/08 06:28:50;;;;;;;9.50;6.30;;;;;;;13.27;100.00;102223.06;5018202;28;20282;-72
2023/10/08 06:31:24;;;;;;;11.10;6.55;;;;;;;13.31;100.00;102228.22;5016251;28;20026;-73
2023/10/08 06:33:50;;;;;;;9.45;6.38;;;;;;;13.32;100.00;102235.28;5020547;28;20540;-72
2023/10/08 06:36:15;;;;;;;10.32;6.50;;;;;;;13.32;100.00;102240.63;5015704;28;20124;-73
2023/10/08 06:38:48;;;;;;;10.57;6.93;;;;;;;13.36;100.00;102254.75;5020576;28;20452;-73
2023/10/08 06:43:43;;;;;;;10.05;6.50;;;;;;;13.39;100.00;102254.66;5026190;28;20431;-73
2023/10/08 06:46:12;;;;;;;10.90;6.60;;;;;;;13.40;100.00;102241.19;5014198;28;20040;-74
2023/10/08 06:48:42;;;;;;;9.60;6.45;;;;;;;13.45;100.00;102249.03;5012520;28;20041;-72
2023/10/08 06:51:12;;;;;;;12.48;6.97;;;;;;;13.44;100.00;102242.81;5017917;28;20033;-72
2023/10/08 06:53:41;;;;;;;10.35;6.38;;;;;;;13.44;100.00;102239.28;5017779;28;20040;-73
2023/10/08 06:56:09;;;;;;;8.88;6.40;;;;;;;13.42;100.00;102247.38;5017326;28;20181;-73
2023/10/08 06:58:35;;;;;;;15.93;7.25;;;;;;;13.45;100.00;102243.69;5017942;28;20146;-73
2023/10/08 07:01:04;;;;;;;12.57;7.55;;;;;;;13.50;100.00;102249.72;5018292;28;20108;-72
2023/10/08 07:03:31;;;;;;;15.13;8.02;;;;;;;13.53;100.00;102251.41;5019109;28;20048;-72
2023/10/08 07:05:59;;;;;;;11.63;6.60;;;;;;;13.52;100.00;102260.38;5017440;28;20033;-73
2023/10/08 07:08:27;;;;;;;12.63;6.88;;;;;;;13.58;100.00;102266.31;5012310;28;20033;-72
2023/10/08 07:10:53;;;;;;;9.27;6.50;;;;;;;13.65;100.00;102275.00;5019506;28;20034;-72
2023/10/08 07:13:21;;;;;;;12.10;7.13;;;;;;;13.69;100.00;102276.59;5017833;28;20029;-73
2023/10/08 07:15:49;;;;;;;11.77;6.70;;;;;;;13.79;100.00;102269.91;5021505;28;20201;-73
2023/10/08 07:18:14;;;;;;;11.18;6.85;;;;;;;13.92;100.00;102268.50;5019334;28;20037;-74
2023/10/08 07:20:45;;;;;;;11.05;6.63;;;;;;;14.00;100.00;102276.19;5018442;28;20468;-74
2023/10/08 07:23:24;;;;;;;11.93;7.50;;;;;;;14.05;100.00;102276.00;5016173;28;20116;-73
2023/10/08 07:26:11;;;;;;;13.93;7.47;;;;;;;14.17;100.00;102279.03;5015127;28;20034;-73
2023/10/08 07:28:41;;;;;;;13.65;7.10;;;;;;;14.23;100.00;102277.03;5019254;28;20044;-72
2023/10/08 07:31:17;;;;;;;11.55;7.05;;;;;;;14.39;100.00;102280.78;5017365;28;20676;-72
2023/10/08 07:33:43;;;;;;;9.45;7.47;;;;;;;14.38;100.00;102281.69;5018008;28;20124;-73
2023/10/08 07:36:14;;;;;;;12.77;7.80;;;;;;;14.45;100.00;102283.16;5017321;28;20025;-73
2023/10/08 07:38:43;;;;;;;13.95;7.53;;;;;;;14.49;100.00;102278.59;5020395;28;20312;-73
2023/10/08 07:41:12;;;;;;;13.05;8.02;;;;;;;14.55;100.00;102283.69;5016522;28;20041;-73
2023/10/08 07:43:38;;;;;;;12.30;7.28;;;;;;;14.66;99.95;102290.28;5016502;28;20026;-73
2023/10/08 07:46:05;;;;;;;12.82;7.88;;;;;;;14.81;99.72;102290.53;5019944;28;20514;-73
2023/10/08 07:48:30;;;;;;;12.55;8.30;;;;;;;14.94;99.57;102292.56;5025649;28;20029;-74
2023/10/08 07:50:57;;;;;;;17.83;8.80;;;;;;;15.17;98.42;102301.34;5019751;28;20037;-74
2023/10/08 07:53:24;;;;;;;13.85;8.98;;;;;;;15.30;98.27;102296.28;5020186;28;20229;-73
2023/10/08 07:55:51;;;;;;;15.77;10.38;;;;;;;15.49;97.83;102293.59;5021087;28;20176;-75
2023/10/08 07:58:17;;;;;;;14.35;9.23;;;;;;;15.56;96.74;102297.72;5019548;28;20035;-75
2023/10/08 08:00:51;;;;;;;14.55;9.02;;;;;;;15.69;96.13;102304.25;5023454;28;20642;-73
2023/10/08 08:03:20;;;;;;;15.05;9.25;;;;;;;15.92;95.11;102303.09;5015482;28;20520;-74
2023/10/08 08:05:52;;;;;;;13.57;8.65;;;;;;;16.23;94.73;102299.75;5019326;28;20083;-74
2023/10/08 08:08:17;;;;;;;14.15;9.38;;;;;;;16.48;93.19;102291.28;5017774;28;20412;-74
2023/10/08 08:10:44;;;;;;;14.57;8.93;;;;;;;16.69;91.24;102302.72;5023513;28;20025;-72
2023/10/08 08:13:11;;;;;;;14.80;8.45;;;;;;;16.99;90.63;102300.22;5022155;28;20017;-74
2023/10/08 08:15:41;;;;;;;13.55;8.88;;;;;;;17.19;89.71;102309.88;5020396;28;20036;-74
2023/10/08 08:18:07;;;;;;;16.98;8.98;;;;;;;17.28;89.78;102321.97;5021716;28;20022;-73
2023/10/08 08:20:38;;;;;;;14.93;8.90;;;;;;;17.25;89.13;102317.59;5024712;28;20036;-74
2023/10/08 08:23:07;;;;;;;16.38;9.73;;;;;;;17.22;88.61;102328.53;5019465;28;20033;-74
2023/10/08 08:25:45;;;;;;;15.52;8.45;;;;;;;17.25;89.70;102341.81;5018289;28;20034;-74
2023/10/08 08:28:19;;;;;;;14.68;9.15;;;;;;;17.21;88.72;102331.31;5017796;28;20487;-75
2023/10/08 08:30:46;;;;;;;16.15;9.77;;;;;;;17.16;89.34;102332.44;5008619;28;20108;-74
2023/10/08 08:33:13;;;;;;;13.88;8.55;;;;;;;17.05;90.12;102347.41;5018423;28;20045;-74
2023/10/08 08:35:39;;;;;;;15.70;9.55;;;;;;;16.85;90.91;102362.81;5018900;28;20028;-74
2023/10/08 08:38:05;;;;;;;15.27;9.50;;;;;;;16.75;92.18;102366.94;5014850;28;20029;-74
2023/10/08 08:40:32;;;;;;;16.45;10.48;;;;;;;16.59;92.76;102364.13;5015833;28;20022;-74
2023/10/08 08:43:02;;;;;;;16.88;10.23;;;;;;;16.56;94.12;102371.53;5013397;28;20029;-74
2023/10/08 08:45:33;;;;;;;16.35;9.85;;;;;;;16.57;94.05;102374.13;5024230;28;20025;-75
2023/10/08 08:47:59;;;;;;;15.80;11.07;;;;;;;16.66;94.72;102376.31;5009072;28;20034;-73
2023/10/08 08:50:26;;;;;;;15.93;11.10;;;;;;;16.74;93.53;102384.03;5019674;28;20037;-73
2023/10/08 08:52:52;;;;;;;17.15;11.80;;;;;;;16.78;94.01;102374.84;5015516;28;20063;-73
2023/10/08 08:55:18;;;;;;;18.20;10.73;;;;;;;16.98;92.97;102376.50;5017367;28;20472;-74
2023/10/08 08:57:46;;;;;;;16.58;11.05;;;;;;;17.16;92.15;102377.31;5014072;28;20284;-74
2023/10/08 09:00:14;;;;;;;22.52;11.00;;;;;;;17.27;91.35;102382.97;5019361;28;20144;-72
2023/10/08 09:02:41;;;;;;;19.92;11.60;;;;;;;17.36;91.07;102366.31;5013118;28;20044;-72
2023/10/08 09:05:23;;;;;;;18.65;11.45;;;;;;;17.54;90.10;102374.31;5015840;28;20025;-73
2023/10/08 09:08:09;;;;;;;19.50;11.73;;;;;;;17.60;90.31;102374.88;5017275;28;20220;-73
2023/10/08 09:10:37;;;;;;;21.50;12.18;;;;;;;17.50;90.36;102375.44;5019280;28;20033;-74
2023/10/08 09:13:04;;;;;;;20.08;12.15;;;;;;;17.56;90.27;102375.13;5020081;28;20025;-74
2023/10/08 09:15:32;;;;;;;19.20;11.80;;;;;;;17.88;88.80;102376.00;5017371;28;20068;-72
2023/10/08 09:18:04;;;;;;;21.30;12.65;;;;;;;18.04;87.67;102386.78;5017979;28;20034;-74
2023/10/08 09:20:31;;;;;;;29.27;13.07;;;;;;;18.16;86.91;102384.22;5016160;28;20022;-74
2023/10/08 09:23:07;;;;;;;23.15;12.68;;;;;;;18.44;86.60;102384.44;5016373;28;20034;-75
2023/10/08 09:25:34;;;;;;;25.73;13.02;;;;;;;18.67;85.58;102376.69;5017406;28;20025;-74
2023/10/08 09:27:59;;;;;;;20.50;12.60;;;;;;;19.22;82.52;102380.53;5019851;28;20130;-74
2023/10/08 09:30:25;;;;;;;19.45;12.35;;;;;;;19.45;80.75;102376.38;5028535;28;20135;-74
2023/10/08 09:32:51;;;;;;;22.63;13.23;;;;;;;19.49;80.47;102369.81;5022946;28;20474;-73
2023/10/08 09:35:18;;;;;;;19.58;13.05;;;;;;;19.47;80.58;102370.88;5021125;28;20129;-74
2023/10/08 09:37:44;;;;;;;19.83;11.85;;;;;;;19.54;80.13;102372.22;5018474;28;20083;-74
2023/10/08 09:40:11;;;;;;;23.73;13.68;;;;;;;19.64;80.08;102381.50;5022800;28;20044;-74
2023/10/08 09:42:42;;;;;;;24.60;14.18;;;;;;;19.88;80.30;102379.88;5022784;28;20087;-74
2023/10/08 09:45:08;;;;;;;22.35;14.10;;;;;;;19.85;79.58;102381.91;5023930;28;20028;-74
2023/10/08 09:47:38;;;;;;;23.90;13.88;;;;;;;19.73;80.26;102380.91;5018729;28;20110;-74
2023/10/08 09:50:08;;;;;;;26.05;14.27;;;;;;;19.84;79.01;102378.34;5020227;28;20056;-74
2023/10/08 09:52:39;;;;;;;22.58;13.63;;;;;;;19.73;80.25;102382.72;5021558;28;20052;-74
2023/10/08 09:55:10;;;;;;;32.75;14.65;;;;;;;19.71;80.77;102373.88;5021741;28;20333;-74
2023/10/08 09:57:36;;;;;;;28.67;13.52;;;;;;;19.70;80.55;102373.00;5015080;28;20021;-75
2023/10/08 10:00:04;;;;;;;28.70;15.38;;;;;;;19.72;80.94;102375.59;5017680;28;20033;-73
2023/10/08 10:02:32;;;;;;;24.88;14.82;;;;;;;19.75;80.32;102376.25;5016856;28;20022;-73
2023/10/08 10:04:57;;;;;;;26.60;15.07;;;;;;;19.68;80.00;102372.22;5016070;28;20115;-73
2023/10/08 10:07:25;;;;;;;24.88;14.73;;;;;;;20.04;79.56;102377.03;5025766;28;20492;-74
2023/10/08 10:09:53;;;;;;;25.73;14.80;;;;;;;20.18;78.19;102370.69;5028612;28;20116;-74
2023/10/08 10:12:26;;;;;;;20.90;14.57;;;;;;;20.55;78.13;102365.53;5021066;28;20353;-75
2023/10/08 10:14:56;;;;;;;20.27;13.70;;;;;;;21.09;75.63;102343.69;5017161;28;20082;-73
2023/10/08 10:17:26;;;;;;;22.95;14.27;;;;;;;21.53;73.65;102351.34;5016941;28;20014;-75
2023/10/08 10:20:03;;;;;;;19.20;13.52;;;;;;;21.89;72.60;102355.84;5012176;28;20053;-75
2023/10/08 10:22:34;;;;;;;21.63;14.20;;;;;;;22.01;70.94;102350.50;5024418;28;20029;-75
2023/10/08 10:25:14;;;;;;;22.65;14.70;;;;;;;22.06;69.79;102351.00;5022703;28;20040;-74
2023/10/08 10:27:42;;;;;;;20.08;13.93;;;;;;;22.10;69.93;102363.34;5016275;28;20029;-74
2023/10/08 10:30:08;;;;;;;19.80;13.93;;;;;;;22.00;70.20;102371.31;5022050;28;20392;-74
2023/10/08 10:32:35;;;;;;;22.42;15.30;;;;;;;21.78;70.08;102369.38;5025472;28;20024;-74
2023/10/08 10:35:03;;;;;;;21.73;13.65;;;;;;;21.91;70.70;102363.03;5023927;28;20026;-74
2023/10/08 10:37:54;;;;;;;25.17;14.98;;;;;;;21.84;71.34;102358.06;5020936;28;20043;-74
2023/10/08 10:40:39;;;;;;;21.80;14.95;;;;;;;21.67;71.20;102358.44;5017889;28;20048;-75
2023/10/08 10:43:09;;;;;;;22.27;14.95;;;;;;;21.72;72.43;102353.53;5017481;28;21478;-73
2023/10/08 10:45:42;;;;;;;26.38;16.85;;;;;;;21.54;71.44;102353.06;5022059;28;20041;-74
2023/10/08 10:51:29;;;;;;;26.67;15.20;;;;;;;21.27;74.02;102368.56;5023209;28;20295;-74
2023/10/08 10:53:56;;;;;;;23.17;15.32;;;;;;;20.93;75.16;102375.53;5018076;28;20076;-74
2023/10/08 10:56:29;;;;;;;21.77;15.98;;;;;;;20.73;75.25;102385.03;5023318;28;20021;-74
2023/10/08 10:58:59;;;;;;;23.17;16.58;;;;;;;20.60;76.47;102383.16;5019114;28;20399;-74
2023/10/08 11:01:29;;;;;;;28.85;16.92;;;;;;;20.31;78.29;102373.44;5028029;28;20036;-74
2023/10/08 11:03:57;;;;;;;29.10;17.48;;;;;;;19.94;80.48;102369.63;5019724;28;20124;-73
2023/10/08 11:06:25;;;;;;;23.55;15.73;;;;;;;19.65;82.95;102370.59;5016595;28;20379;-74
2023/10/08 11:08:53;;;;;;;23.73;16.95;;;;;;;19.49;84.13;102366.25;5021767;28;20026;-74
2023/10/08 11:11:27;;;;;;;27.63;16.52;;;;;;;19.48;84.94;102369.91;5028026;28;20026;-74
2023/10/08 11:14:00;;;;;;;25.77;17.55;;;;;;;19.44;85.50;102362.97;5026367;28;20469;-73
2023/10/08 11:16:26;;;;;;;28.08;16.85;;;;;;;19.40;85.37;102370.41;5022895;28;20090;-75
2023/10/08 11:18:57;;;;;;;27.60;16.73;;;;;;;19.35;86.27;102377.91;5016711;28;20021;-76
2023/10/08 11:21:24;;;;;;;24.10;16.35;;;;;;;19.35;85.89;102373.41;5022890;28;20451;-74
2023/10/08 11:23:55;;;;;;;22.30;16.15;;;;;;;19.37;86.57;102376.88;5020761;28;20190;-73
2023/10/08 11:26:35;;;;;;;24.90;16.20;;;;;;;19.32;87.07;102373.59;5013775;28;20095;-74
2023/10/08 11:29:02;;;;;;;22.95;14.90;;;;;;;19.25;86.61;102376.78;5022000;28;20032;-73
2023/10/08 11:31:29;;;;;;;22.70;15.55;;;;;;;19.04;88.00;102382.56;5022263;28;20021;-73
2023/10/08 11:34:00;;;;;;;24.63;16.10;;;;;;;18.85;88.95;102374.75;5020394;28;20086;-74
2023/10/08 11:36:27;;;;;;;29.30;15.90;;;;;;;18.65;89.77;102377.75;5027561;28;20029;-75
2023/10/08 11:39:06;;;;;;;24.08;15.88;;;;;;;18.47;90.84;102366.22;5021108;28;20034;-75
2023/10/08 11:41:44;;;;;;;26.00;16.08;;;;;;;18.64;90.55;102359.81;5018932;28;20052;-74
2023/10/08 11:44:13;;;;;;;28.27;16.05;;;;;;;18.68;90.20;102364.06;5020868;28;20071;-74
2023/10/08 11:46:38;;;;;;;24.75;15.75;;;;;;;18.67;90.60;102371.28;5021804;28;20014;-76
2023/10/08 11:49:17;;;;;;;26.13;15.30;;;;;;;18.85;90.37;102371.16;5022349;28;20045;-74
2023/10/08 11:51:45;;;;;;;27.20;15.60;;;;;;;18.92;89.49;102365.28;5025677;28;20071;-75
2023/10/08 11:54:11;;;;;;;22.38;15.48;;;;;;;18.87;88.80;102362.03;5024268;28;20027;-74
2023/10/08 11:56:38;;;;;;;19.33;13.73;;;;;;;18.89;89.40;102357.41;5022884;28;20033;-73
2023/10/08 11:59:13;;;;;;;18.20;13.05;;;;;;;18.96;88.97;102365.13;5021651;28;20483;-74
2023/10/08 12:01:42;;;;;;;23.17;14.27;;;;;;;18.97;88.26;102356.91;5025831;28;20036;-74
2023/10/08 12:04:12;;;;;;;23.83;14.90;;;;;;;19.02;88.39;102353.94;5015136;28;20069;-73
2023/10/08 12:06:39;;;;;;;20.33;13.82;;;;;;;19.22;87.94;102348.13;5027401;28;20307;-74
2023/10/08 12:09:11;;;;;;;22.80;13.63;;;;;;;19.39;87.61;102338.97;5018866;28;20219;-74
2023/10/08 12:11:37;;;;;;;21.63;14.90;;;;;;;19.35;86.48;102332.03;5027005;28;20087;-74
2023/10/08 12:14:03;;;;;;;23.15;14.75;;;;;;;19.48;86.87;102340.19;5024624;28;20292;-74
2023/10/08 12:16:35;;;;;;;20.67;14.73;;;;;;;19.58;85.90;102331.41;5021142;28;20030;-74
2023/10/08 12:19:02;;;;;;;20.45;14.73;;;;;;;19.43;85.64;102335.09;5010809;28;20087;-75
2023/10/08 12:21:29;;;;;;;20.85;14.30;;;;;;;19.36;86.37;102331.94;5021556;28;20037;-74
2023/10/08 12:23:56;;;;;;;20.20;13.88;;;;;;;19.23;86.96;102322.91;5015719;28;20029;-75
2023/10/08 12:26:22;;;;;;;20.58;14.48;;;;;;;19.20;87.08;102331.19;5016336;28;20036;-75
2023/10/08 12:28:48;;;;;;;20.70;14.95;;;;;;;19.08;87.68;102327.44;5019698;28;20378;-75
2023/10/08 12:31:24;;;;;;;21.85;14.77;;;;;;;18.98;88.59;102325.41;5015241;28;20034;-74
2023/10/08 12:33:53;;;;;;;19.77;14.00;;;;;;;19.03;87.76;102324.16;5018751;28;20021;-74
2023/10/08 12:36:26;;;;;;;21.40;14.65;;;;;;;19.09;87.77;102322.91;5021500;28;20043;-74
2023/10/08 12:38:58;;;;;;;18.27;15.25;;;;;;;19.32;87.26;102321.44;5025897;28;20029;-74